sensor_id;sensor_type;location;lat;lon;timestamp;temperature;humidity
8858;DHT22;4465;50.904;4.696;2022-09-13T00:01:22;18.50;99.90
8858;DHT22;4465;50.904;4.696;2022-09-13T00:03:48;18.40;99.90
8858;DHT22;4465;50.904;4.696;2022-09-13T00:06:18;18.40;99.90
8858;DHT22;4465;50.904;4.696;2022-09-13T00:08:45;18.40;99.90
8858;DHT22;4465;50.904;4.696;2022-09-13T00:11:18;18.40;99.90
8858;DHT22;4465;50.904;4.696;2022-09-13T00:13:44;18.40;99.90
8858;DHT22;4465;50.904;4.696;2022-09-13T00:16:13;18.40;99.90
8858;DHT22;4465;50.904;4.696;2022-09-13T00:18:40;18.40;99.90
8858;DHT22;4465;50.904;4.696;2022-09-13T00:21:09;18.40;99.90
8858;DHT22;4465;50.904;4.696;2022-09-13T00:23:36;18.40;99.90
8858;DHT22;4465;50.904;4.696;2022-09-13T00:26:08;18.30;99.90
8858;DHT22;4465;50.904;4.696;2022-09-13T00:28:35;18.30;99.90
8858;DHT22;4465;50.904;4.696;2022-09-13T00:31:02;18.30;99.90
8858;DHT22;4465;50.904;4.696;2022-09-13T00:33:28;18.20;99.90
8858;DHT22;4465;50.904;4.696;2022-09-13T00:35:54;18.20;99.90
8858;DHT22;4465;50.904;4.696;2022-09-13T00:38:22;18.20;99.90
8858;DHT22;4465;50.904;4.696;2022-09-13T00:40:50;18.20;99.90
8858;DHT22;4465;50.904;4.696;2022-09-13T00:43:19;18.10;99.90
8858;DHT22;4465;50.904;4.696;2022-09-13T00:45:46;18.20;99.90
8858;DHT22;4465;50.904;4.696;2022-09-13T00:48:21;18.20;99.90
8858;DHT22;4465;50.904;4.696;2022-09-13T00:50:51;18.20;99.90
8858;DHT22;4465;50.904;4.696;2022-09-13T00:53:27;18.20;99.90
8858;DHT22;4465;50.904;4.696;2022-09-13T00:56:07;18.10;99.90
8858;DHT22;4465;50.904;4.696;2022-09-13T01:01:04;18.10;99.90
8858;DHT22;4465;50.904;4.696;2022-09-13T01:03:34;18.10;99.90
8858;DHT22;4465;50.904;4.696;2022-09-13T01:06:04;18.10;99.90
8858;DHT22;4465;50.904;4.696;2022-09-13T01:08:37;18.00;99.90
8858;DHT22;4465;50.904;4.696;2022-09-13T01:11:05;18.00;99.90
8858;DHT22;4465;50.904;4.696;2022-09-13T01:13:38;18.00;99.90
8858;DHT22;4465;50.904;4.696;2022-09-13T01:16:04;18.00;99.90
8858;DHT22;4465;50.904;4.696;2022-09-13T01:18:31;18.00;99.90
8858;DHT22;4465;50.904;4.696;2022-09-13T01:30:21;18.00;99.90
8858;DHT22;4465;50.904;4.696;2022-09-13T01:32:55;18.00;99.90
8858;DHT22;4465;50.904;4.696;2022-09-13T01:38:53;17.90;99.90
8858;DHT22;4465;50.904;4.696;2022-09-13T01:52:46;17.90;99.90
8858;DHT22;4465;50.904;4.696;2022-09-13T01:58:51;17.90;99.90
8858;DHT22;4465;50.904;4.696;2022-09-13T02:01:29;17.90;99.90
8858;DHT22;4465;50.904;4.696;2022-09-13T02:04:08;17.90;99.90
8858;DHT22;4465;50.904;4.696;2022-09-13T02:06:45;17.90;99.90
8858;DHT22;4465;50.904;4.696;2022-09-13T02:09:18;17.90;99.90
8858;DHT22;4465;50.904;4.696;2022-09-13T02:11:56;17.90;99.90
8858;DHT22;4465;50.904;4.696;2022-09-13T02:14:29;17.90;99.90
8858;DHT22;4465;50.904;4.696;2022-09-13T02:17:03;17.90;99.90
8858;DHT22;4465;50.904;4.696;2022-09-13T02:19:37;17.90;99.90
8858;DHT22;4465;50.904;4.696;2022-09-13T02:22:08;17.90;99.90
8858;DHT22;4465;50.904;4.696;2022-09-13T02:24:39;17.90;99.90
8858;DHT22;4465;50.904;4.696;2022-09-13T02:27:12;17.90;99.90
8858;DHT22;4465;50.904;4.696;2022-09-13T02:29:44;17.90;99.90
8858;DHT22;4465;50.904;4.696;2022-09-13T02:35:01;17.90;99.90
8858;DHT22;4465;50.904;4.696;2022-09-13T02:37:29;17.90;99.90
8858;DHT22;4465;50.904;4.696;2022-09-13T02:40:06;17.90;99.90
8858;DHT22;4465;50.904;4.696;2022-09-13T02:42:48;17.90;99.90
8858;DHT22;4465;50.904;4.696;2022-09-13T02:45:17;17.90;99.90
8858;DHT22;4465;50.904;4.696;2022-09-13T02:47:56;17.90;99.90
8858;DHT22;4465;50.904;4.696;2022-09-13T02:56:18;17.90;99.90
8858;DHT22;4465;50.904;4.696;2022-09-13T02:58:55;17.90;99.90
8858;DHT22;4465;50.904;4.696;2022-09-13T03:01:23;17.90;99.90
8858;DHT22;4465;50.904;4.696;2022-09-13T03:03:51;17.90;99.90
8858;DHT22;4465;50.904;4.696;2022-09-13T03:06:29;17.90;99.90
8858;DHT22;4465;50.904;4.696;2022-09-13T03:08:59;17.90;99.90
8858;DHT22;4465;50.904;4.696;2022-09-13T03:25:47;17.90;99.90
8858;DHT22;4465;50.904;4.696;2022-09-13T03:28:41;17.90;99.90
8858;DHT22;4465;50.904;4.696;2022-09-13T03:31:20;17.90;99.90
8858;DHT22;4465;50.904;4.696;2022-09-13T03:34:23;17.90;99.90
8858;DHT22;4465;50.904;4.696;2022-09-13T03:36:54;17.90;99.90
8858;DHT22;4465;50.904;4.696;2022-09-13T03:42:47;17.90;99.90
8858;DHT22;4465;50.904;4.696;2022-09-13T03:45:16;17.90;99.90
8858;DHT22;4465;50.904;4.696;2022-09-13T03:47:45;17.90;99.90
8858;DHT22;4465;50.904;4.696;2022-09-13T03:50:18;17.90;99.90
8858;DHT22;4465;50.904;4.696;2022-09-13T03:52:47;17.90;99.90
8858;DHT22;4465;50.904;4.696;2022-09-13T03:55:21;17.90;99.90
8858;DHT22;4465;50.904;4.696;2022-09-13T03:57:47;18.00;99.90
8858;DHT22;4465;50.904;4.696;2022-09-13T04:00:14;18.00;99.90
8858;DHT22;4465;50.904;4.696;2022-09-13T04:02:40;18.00;99.90
8858;DHT22;4465;50.904;4.696;2022-09-13T04:05:09;18.00;99.90
8858;DHT22;4465;50.904;4.696;2022-09-13T04:07:38;18.00;99.90
8858;DHT22;4465;50.904;4.696;2022-09-13T04:10:05;18.00;99.90
8858;DHT22;4465;50.904;4.696;2022-09-13T04:12:31;18.00;99.90
8858;DHT22;4465;50.904;4.696;2022-09-13T04:14:59;18.00;99.90
8858;DHT22;4465;50.904;4.696;2022-09-13T04:17:26;18.00;99.90
8858;DHT22;4465;50.904;4.696;2022-09-13T04:19:52;18.10;99.90
8858;DHT22;4465;50.904;4.696;2022-09-13T04:22:18;18.10;99.90
8858;DHT22;4465;50.904;4.696;2022-09-13T04:24:44;18.10;99.90
8858;DHT22;4465;50.904;4.696;2022-09-13T04:27:11;18.10;99.90
8858;DHT22;4465;50.904;4.696;2022-09-13T04:29:37;18.10;99.90
8858;DHT22;4465;50.904;4.696;2022-09-13T04:32:04;18.00;99.90
8858;DHT22;4465;50.904;4.696;2022-09-13T04:34:30;18.10;99.90
8858;DHT22;4465;50.904;4.696;2022-09-13T04:36:59;18.10;99.90
8858;DHT22;4465;50.904;4.696;2022-09-13T04:39:25;18.10;99.90
8858;DHT22;4465;50.904;4.696;2022-09-13T04:41:51;18.10;99.90
8858;DHT22;4465;50.904;4.696;2022-09-13T04:44:19;18.00;99.90
8858;DHT22;4465;50.904;4.696;2022-09-13T04:46:47;18.00;99.90
8858;DHT22;4465;50.904;4.696;2022-09-13T04:49:14;18.00;99.90
8858;DHT22;4465;50.904;4.696;2022-09-13T04:51:41;18.00;99.90
8858;DHT22;4465;50.904;4.696;2022-09-13T04:54:08;18.00;99.90
8858;DHT22;4465;50.904;4.696;2022-09-13T04:56:35;18.00;99.90
8858;DHT22;4465;50.904;4.696;2022-09-13T04:59:01;17.90;99.90
8858;DHT22;4465;50.904;4.696;2022-09-13T05:01:28;18.00;99.90
8858;DHT22;4465;50.904;4.696;2022-09-13T05:03:54;18.00;99.90
8858;DHT22;4465;50.904;4.696;2022-09-13T05:06:21;18.00;99.90
8858;DHT22;4465;50.904;4.696;2022-09-13T05:08:54;18.00;99.90
8858;DHT22;4465;50.904;4.696;2022-09-13T05:11:22;18.00;99.90
8858;DHT22;4465;50.904;4.696;2022-09-13T05:13:49;18.00;99.90
8858;DHT22;4465;50.904;4.696;2022-09-13T05:16:23;18.10;99.90
8858;DHT22;4465;50.904;4.696;2022-09-13T05:18:50;18.10;99.90
8858;DHT22;4465;50.904;4.696;2022-09-13T05:21:17;18.10;99.90
8858;DHT22;4465;50.904;4.696;2022-09-13T05:23:43;18.10;99.90
8858;DHT22;4465;50.904;4.696;2022-09-13T05:26:12;18.10;99.90
8858;DHT22;4465;50.904;4.696;2022-09-13T05:28:38;18.00;99.90
8858;DHT22;4465;50.904;4.696;2022-09-13T05:31:06;18.10;99.90
8858;DHT22;4465;50.904;4.696;2022-09-13T05:33:37;18.10;99.90
8858;DHT22;4465;50.904;4.696;2022-09-13T05:36:04;18.10;99.90
8858;DHT22;4465;50.904;4.696;2022-09-13T05:38:32;18.10;99.90
8858;DHT22;4465;50.904;4.696;2022-09-13T05:41:00;18.10;99.90
8858;DHT22;4465;50.904;4.696;2022-09-13T05:43:32;18.10;99.90
8858;DHT22;4465;50.904;4.696;2022-09-13T05:46:23;18.10;99.90
8858;DHT22;4465;50.904;4.696;2022-09-13T05:48:49;18.10;99.90
8858;DHT22;4465;50.904;4.696;2022-09-13T05:51:17;18.10;99.90
8858;DHT22;4465;50.904;4.696;2022-09-13T05:53:46;18.10;99.90
8858;DHT22;4465;50.904;4.696;2022-09-13T05:56:14;18.10;99.90
8858;DHT22;4465;50.904;4.696;2022-09-13T05:58:43;18.10;99.90
8858;DHT22;4465;50.904;4.696;2022-09-13T06:01:10;18.10;99.90
8858;DHT22;4465;50.904;4.696;2022-09-13T06:03:37;18.20;99.90
8858;DHT22;4465;50.904;4.696;2022-09-13T06:06:07;18.20;99.90
8858;DHT22;4465;50.904;4.696;2022-09-13T06:08:34;18.20;99.90
8858;DHT22;4465;50.904;4.696;2022-09-13T06:11:08;18.20;99.90
8858;DHT22;4465;50.904;4.696;2022-09-13T06:13:37;18.20;99.90
8858;DHT22;4465;50.904;4.696;2022-09-13T06:16:06;18.20;99.90
8858;DHT22;4465;50.904;4.696;2022-09-13T06:18:33;18.20;99.90
8858;DHT22;4465;50.904;4.696;2022-09-13T06:21:05;18.20;99.90
8858;DHT22;4465;50.904;4.696;2022-09-13T06:23:32;18.20;99.90
8858;DHT22;4465;50.904;4.696;2022-09-13T06:26:06;18.20;99.90
8858;DHT22;4465;50.904;4.696;2022-09-13T06:28:32;18.30;99.90
8858;DHT22;4465;50.904;4.696;2022-09-13T06:31:04;18.30;99.90
8858;DHT22;4465;50.904;4.696;2022-09-13T06:33:34;18.30;99.90
8858;DHT22;4465;50.904;4.696;2022-09-13T06:36:03;18.30;99.90
8858;DHT22;4465;50.904;4.696;2022-09-13T06:38:33;18.30;99.90
8858;DHT22;4465;50.904;4.696;2022-09-13T06:43:35;18.30;99.90
8858;DHT22;4465;50.904;4.696;2022-09-13T06:46:06;18.30;99.90
8858;DHT22;4465;50.904;4.696;2022-09-13T06:48:40;18.40;99.90
8858;DHT22;4465;50.904;4.696;2022-09-13T06:51:12;18.40;99.90
8858;DHT22;4465;50.904;4.696;2022-09-13T06:53:40;18.40;99.90
8858;DHT22;4465;50.904;4.696;2022-09-13T06:58:42;18.40;99.90
8858;DHT22;4465;50.904;4.696;2022-09-13T07:03:42;18.50;99.90
8858;DHT22;4465;50.904;4.696;2022-09-13T07:06:14;18.50;99.90
8858;DHT22;4465;50.904;4.696;2022-09-13T07:08:42;18.50;99.90
8858;DHT22;4465;50.904;4.696;2022-09-13T07:11:15;18.60;99.90
8858;DHT22;4465;50.904;4.696;2022-09-13T07:14:03;18.60;99.90
8858;DHT22;4465;50.904;4.696;2022-09-13T07:16:31;18.70;99.90
8858;DHT22;4465;50.904;4.696;2022-09-13T07:19:00;18.70;99.90
8858;DHT22;4465;50.904;4.696;2022-09-13T07:21:28;18.70;99.90
8858;DHT22;4465;50.904;4.696;2022-09-13T07:23:57;18.80;99.90
8858;DHT22;4465;50.904;4.696;2022-09-13T07:26:26;18.90;99.90
8858;DHT22;4465;50.904;4.696;2022-09-13T07:28:55;19.00;99.90
8858;DHT22;4465;50.904;4.696;2022-09-13T07:31:24;19.00;99.90
8858;DHT22;4465;50.904;4.696;2022-09-13T07:34:14;19.10;99.90
8858;DHT22;4465;50.904;4.696;2022-09-13T07:36:41;19.30;99.90
8858;DHT22;4465;50.904;4.696;2022-09-13T07:39:08;19.40;99.90
8858;DHT22;4465;50.904;4.696;2022-09-13T07:41:36;19.50;99.90
8858;DHT22;4465;50.904;4.696;2022-09-13T07:44:03;19.50;99.90
8858;DHT22;4465;50.904;4.696;2022-09-13T07:46:35;19.60;99.90
8858;DHT22;4465;50.904;4.696;2022-09-13T07:49:10;19.70;99.90
8858;DHT22;4465;50.904;4.696;2022-09-13T07:51:38;19.70;99.90
8858;DHT22;4465;50.904;4.696;2022-09-13T07:54:11;19.80;99.90
8858;DHT22;4465;50.904;4.696;2022-09-13T07:56:41;19.90;99.90
8858;DHT22;4465;50.904;4.696;2022-09-13T07:59:13;20.00;99.90
8858;DHT22;4465;50.904;4.696;2022-09-13T08:04:14;20.30;99.90
8858;DHT22;4465;50.904;4.696;2022-09-13T08:06:50;20.30;99.90
8858;DHT22;4465;50.904;4.696;2022-09-13T08:09:16;20.50;99.90
8858;DHT22;4465;50.904;4.696;2022-09-13T08:11:47;20.60;99.90
8858;DHT22;4465;50.904;4.696;2022-09-13T08:14:20;20.60;99.90
8858;DHT22;4465;50.904;4.696;2022-09-13T08:16:47;20.70;99.90
8858;DHT22;4465;50.904;4.696;2022-09-13T08:19:17;20.80;99.90
8858;DHT22;4465;50.904;4.696;2022-09-13T08:21:45;20.90;99.90
8858;DHT22;4465;50.904;4.696;2022-09-13T08:24:17;21.00;99.90
8858;DHT22;4465;50.904;4.696;2022-09-13T08:26:44;21.10;99.90
8858;DHT22;4465;50.904;4.696;2022-09-13T08:29:12;21.20;99.90
8858;DHT22;4465;50.904;4.696;2022-09-13T08:31:38;21.20;99.90
8858;DHT22;4465;50.904;4.696;2022-09-13T08:34:05;21.30;99.90
8858;DHT22;4465;50.904;4.696;2022-09-13T08:36:31;21.40;99.90
8858;DHT22;4465;50.904;4.696;2022-09-13T08:38:59;21.40;99.90
8858;DHT22;4465;50.904;4.696;2022-09-13T08:47:15;21.50;99.90
8858;DHT22;4465;50.904;4.696;2022-09-13T08:49:49;21.50;99.90
8858;DHT22;4465;50.904;4.696;2022-09-13T08:52:28;21.60;99.90
8858;DHT22;4465;50.904;4.696;2022-09-13T08:54:57;21.60;99.90
8858;DHT22;4465;50.904;4.696;2022-09-13T08:57:34;21.60;99.90
8858;DHT22;4465;50.904;4.696;2022-09-13T09:05:47;21.70;99.90
8858;DHT22;4465;50.904;4.696;2022-09-13T09:08:31;21.80;99.90
8858;DHT22;4465;50.904;4.696;2022-09-13T09:11:06;21.80;99.90
8858;DHT22;4465;50.904;4.696;2022-09-13T09:14:19;21.90;99.90
8858;DHT22;4465;50.904;4.696;2022-09-13T09:16:49;21.90;99.90
8858;DHT22;4465;50.904;4.696;2022-09-13T09:19:21;22.00;99.90
8858;DHT22;4465;50.904;4.696;2022-09-13T09:21:49;22.00;99.90
8858;DHT22;4465;50.904;4.696;2022-09-13T09:24:23;22.10;99.90
8858;DHT22;4465;50.904;4.696;2022-09-13T09:26:52;22.10;99.90
8858;DHT22;4465;50.904;4.696;2022-09-13T09:29:27;22.20;99.90
8858;DHT22;4465;50.904;4.696;2022-09-13T09:34:50;22.30;99.90
8858;DHT22;4465;50.904;4.696;2022-09-13T09:37:22;22.30;99.90
8858;DHT22;4465;50.904;4.696;2022-09-13T09:39:51;22.40;99.90
8858;DHT22;4465;50.904;4.696;2022-09-13T09:42:20;22.40;99.90
8858;DHT22;4465;50.904;4.696;2022-09-13T09:44:52;22.40;99.90
8858;DHT22;4465;50.904;4.696;2022-09-13T09:47:25;22.50;99.90
8858;DHT22;4465;50.904;4.696;2022-09-13T09:49:54;22.50;99.90
8858;DHT22;4465;50.904;4.696;2022-09-13T09:52:58;22.60;99.90
8858;DHT22;4465;50.904;4.696;2022-09-13T09:55:48;22.60;99.90
8858;DHT22;4465;50.904;4.696;2022-09-13T09:58:16;22.70;99.90
8858;DHT22;4465;50.904;4.696;2022-09-13T10:00:54;22.70;99.90
8858;DHT22;4465;50.904;4.696;2022-09-13T10:03:28;22.80;99.90
8858;DHT22;4465;50.904;4.696;2022-09-13T10:06:12;22.90;99.90
8858;DHT22;4465;50.904;4.696;2022-09-13T10:08:41;22.90;99.90
8858;DHT22;4465;50.904;4.696;2022-09-13T10:11:09;23.00;99.90
8858;DHT22;4465;50.904;4.696;2022-09-13T10:13:35;23.00;99.90
8858;DHT22;4465;50.904;4.696;2022-09-13T10:16:13;23.00;99.90
8858;DHT22;4465;50.904;4.696;2022-09-13T10:18:48;23.10;99.90
8858;DHT22;4465;50.904;4.696;2022-09-13T10:23:44;23.20;99.90
8858;DHT22;4465;50.904;4.696;2022-09-13T10:26:21;23.20;99.90
8858;DHT22;4465;50.904;4.696;2022-09-13T10:31:19;23.30;99.90
8858;DHT22;4465;50.904;4.696;2022-09-13T10:36:18;23.40;99.90
8858;DHT22;4465;50.904;4.696;2022-09-13T10:39:04;23.40;99.90
8858;DHT22;4465;50.904;4.696;2022-09-13T10:41:34;23.50;99.90
8858;DHT22;4465;50.904;4.696;2022-09-13T10:44:05;23.50;99.90
8858;DHT22;4465;50.904;4.696;2022-09-13T10:46:47;23.60;99.90
8858;DHT22;4465;50.904;4.696;2022-09-13T10:49:34;23.60;99.90
8858;DHT22;4465;50.904;4.696;2022-09-13T10:52:00;23.70;99.90
8858;DHT22;4465;50.904;4.696;2022-09-13T10:54:28;23.70;99.90
8858;DHT22;4465;50.904;4.696;2022-09-13T10:56:54;23.70;99.90
8858;DHT22;4465;50.904;4.696;2022-09-13T10:59:28;23.70;99.90
8858;DHT22;4465;50.904;4.696;2022-09-13T11:04:57;23.80;99.90
8858;DHT22;4465;50.904;4.696;2022-09-13T11:07:32;23.80;99.90
8858;DHT22;4465;50.904;4.696;2022-09-13T11:10:14;23.90;99.90
8858;DHT22;4465;50.904;4.696;2022-09-13T11:18:16;23.80;99.90
8858;DHT22;4465;50.904;4.696;2022-09-13T11:24:12;24.10;99.90
8858;DHT22;4465;50.904;4.696;2022-09-13T11:29:48;24.30;99.90
8858;DHT22;4465;50.904;4.696;2022-09-13T11:51:45;24.70;99.90
8858;DHT22;4465;50.904;4.696;2022-09-13T11:56:55;24.70;99.90
8858;DHT22;4465;50.904;4.696;2022-09-13T11:59:34;24.70;99.90
8858;DHT22;4465;50.904;4.696;2022-09-13T12:02:23;24.70;99.90
8858;DHT22;4465;50.904;4.696;2022-09-13T12:05:00;24.70;99.90
8858;DHT22;4465;50.904;4.696;2022-09-13T12:07:37;24.70;99.90
8858;DHT22;4465;50.904;4.696;2022-09-13T12:10:14;24.60;99.90
8858;DHT22;4465;50.904;4.696;2022-09-13T12:12:42;24.60;99.90
8858;DHT22;4465;50.904;4.696;2022-09-13T12:15:25;24.50;99.90
8858;DHT22;4465;50.904;4.696;2022-09-13T12:18:11;24.50;99.90
8858;DHT22;4465;50.904;4.696;2022-09-13T12:20:47;24.50;99.90
8858;DHT22;4465;50.904;4.696;2022-09-13T12:23:22;24.50;99.90
8858;DHT22;4465;50.904;4.696;2022-09-13T12:25:58;24.50;99.90
8858;DHT22;4465;50.904;4.696;2022-09-13T12:28:26;24.50;99.90
8858;DHT22;4465;50.904;4.696;2022-09-13T12:31:17;24.60;99.90
8858;DHT22;4465;50.904;4.696;2022-09-13T12:33:45;24.60;99.90
8858;DHT22;4465;50.904;4.696;2022-09-13T12:36:39;24.60;99.90
8858;DHT22;4465;50.904;4.696;2022-09-13T12:39:37;24.60;99.90
8858;DHT22;4465;50.904;4.696;2022-09-13T12:42:24;24.50;99.90
8858;DHT22;4465;50.904;4.696;2022-09-13T13:01:36;24.30;99.90
8858;DHT22;4465;50.904;4.696;2022-09-13T13:04:37;24.30;99.90
8858;DHT22;4465;50.904;4.696;2022-09-13T13:07:05;24.30;99.90
8858;DHT22;4465;50.904;4.696;2022-09-13T13:09:45;24.30;99.90
8858;DHT22;4465;50.904;4.696;2022-09-13T13:12:34;24.20;99.90
8858;DHT22;4465;50.904;4.696;2022-09-13T13:17:54;24.20;99.90
8858;DHT22;4465;50.904;4.696;2022-09-13T13:20:40;24.20;99.90
8858;DHT22;4465;50.904;4.696;2022-09-13T13:23:31;24.10;99.90
8858;DHT22;4465;50.904;4.696;2022-09-13T13:28:50;24.10;99.90
8858;DHT22;4465;50.904;4.696;2022-09-13T13:33:59;24.00;99.90
8858;DHT22;4465;50.904;4.696;2022-09-13T13:36:31;23.90;99.90
8858;DHT22;4465;50.904;4.696;2022-09-13T13:41:55;23.80;99.90
8858;DHT22;4465;50.904;4.696;2022-09-13T13:52:53;23.70;99.90
8858;DHT22;4465;50.904;4.696;2022-09-13T13:55:45;23.70;99.90
8858;DHT22;4465;50.904;4.696;2022-09-13T13:58:28;23.60;99.90
8858;DHT22;4465;50.904;4.696;2022-09-13T14:00:58;23.60;99.90
8858;DHT22;4465;50.904;4.696;2022-09-13T14:06:07;23.50;99.90
8858;DHT22;4465;50.904;4.696;2022-09-13T14:08:53;23.50;99.90
8858;DHT22;4465;50.904;4.696;2022-09-13T14:14:32;23.40;99.90
8858;DHT22;4465;50.904;4.696;2022-09-13T14:19:57;23.30;99.90
8858;DHT22;4465;50.904;4.696;2022-09-13T14:22:26;23.30;99.90
8858;DHT22;4465;50.904;4.696;2022-09-13T14:24:57;23.20;99.90
8858;DHT22;4465;50.904;4.696;2022-09-13T14:27:28;23.20;99.90
8858;DHT22;4465;50.904;4.696;2022-09-13T14:29:56;23.20;99.90
8858;DHT22;4465;50.904;4.696;2022-09-13T14:32:25;23.10;99.90
8858;DHT22;4465;50.904;4.696;2022-09-13T14:37:31;23.00;99.90
8858;DHT22;4465;50.904;4.696;2022-09-13T14:39:59;23.00;99.90
8858;DHT22;4465;50.904;4.696;2022-09-13T14:42:26;23.00;99.90
8858;DHT22;4465;50.904;4.696;2022-09-13T14:44:54;22.90;99.90
8858;DHT22;4465;50.904;4.696;2022-09-13T14:47:28;22.90;99.90
8858;DHT22;4465;50.904;4.696;2022-09-13T14:50:29;22.90;99.90
8858;DHT22;4465;50.904;4.696;2022-09-13T14:55:30;22.80;99.90
8858;DHT22;4465;50.904;4.696;2022-09-13T14:58:00;22.80;99.90
8858;DHT22;4465;50.904;4.696;2022-09-13T15:00:32;22.70;99.90
8858;DHT22;4465;50.904;4.696;2022-09-13T15:03:03;22.60;99.90
8858;DHT22;4465;50.904;4.696;2022-09-13T15:05:34;22.60;99.90
8858;DHT22;4465;50.904;4.696;2022-09-13T15:11:06;22.50;99.90
8858;DHT22;4465;50.904;4.696;2022-09-13T15:13:36;22.40;99.90
8858;DHT22;4465;50.904;4.696;2022-09-13T15:16:27;22.40;99.90
8858;DHT22;4465;50.904;4.696;2022-09-13T15:21:42;22.40;99.90
8858;DHT22;4465;50.904;4.696;2022-09-13T15:24:20;22.40;99.90
8858;DHT22;4465;50.904;4.696;2022-09-13T15:26:46;22.40;99.90
8858;DHT22;4465;50.904;4.696;2022-09-13T15:29:17;22.40;99.90
8858;DHT22;4465;50.904;4.696;2022-09-13T15:31:44;22.30;99.90
8858;DHT22;4465;50.904;4.696;2022-09-13T15:37:10;22.30;99.90
8858;DHT22;4465;50.904;4.696;2022-09-13T15:39:49;22.30;99.90
8858;DHT22;4465;50.904;4.696;2022-09-13T15:42:26;22.30;99.90
8858;DHT22;4465;50.904;4.696;2022-09-13T15:44:54;22.30;99.90
8858;DHT22;4465;50.904;4.696;2022-09-13T15:47:27;22.30;99.90
8858;DHT22;4465;50.904;4.696;2022-09-13T15:49:54;22.30;99.90
8858;DHT22;4465;50.904;4.696;2022-09-13T15:52:21;22.20;99.90
8858;DHT22;4465;50.904;4.696;2022-09-13T15:54:48;22.20;99.90
8858;DHT22;4465;50.904;4.696;2022-09-13T15:57:21;22.20;99.90
8858;DHT22;4465;50.904;4.696;2022-09-13T15:59:47;22.20;99.90
8858;DHT22;4465;50.904;4.696;2022-09-13T16:02:25;22.20;99.90
8858;DHT22;4465;50.904;4.696;2022-09-13T16:04:53;22.10;99.90
8858;DHT22;4465;50.904;4.696;2022-09-13T16:07:20;22.10;99.90
8858;DHT22;4465;50.904;4.696;2022-09-13T16:09:47;22.10;99.90
8858;DHT22;4465;50.904;4.696;2022-09-13T16:12:14;22.10;99.90
8858;DHT22;4465;50.904;4.696;2022-09-13T16:14:40;22.10;99.90
8858;DHT22;4465;50.904;4.696;2022-09-13T16:17:32;22.10;99.90
8858;DHT22;4465;50.904;4.696;2022-09-13T16:19:59;22.10;99.90
8858;DHT22;4465;50.904;4.696;2022-09-13T16:22:25;22.00;99.90
8858;DHT22;4465;50.904;4.696;2022-09-13T16:24:51;22.00;99.90
8858;DHT22;4465;50.904;4.696;2022-09-13T16:27:18;22.00;99.90
8858;DHT22;4465;50.904;4.696;2022-09-13T16:29:44;22.00;99.90
8858;DHT22;4465;50.904;4.696;2022-09-13T16:32:11;21.90;99.90
8858;DHT22;4465;50.904;4.696;2022-09-13T16:34:37;21.90;99.90
8858;DHT22;4465;50.904;4.696;2022-09-13T16:37:04;21.90;99.90
8858;DHT22;4465;50.904;4.696;2022-09-13T16:39:30;21.90;99.90
8858;DHT22;4465;50.904;4.696;2022-09-13T16:41:58;21.90;99.90
8858;DHT22;4465;50.904;4.696;2022-09-13T16:44:24;21.80;99.90
8858;DHT22;4465;50.904;4.696;2022-09-13T16:46:50;21.80;99.90
8858;DHT22;4465;50.904;4.696;2022-09-13T16:49:19;21.80;99.90
8858;DHT22;4465;50.904;4.696;2022-09-13T16:51:47;21.70;99.90
8858;DHT22;4465;50.904;4.696;2022-09-13T16:54:14;21.70;99.90
8858;DHT22;4465;50.904;4.696;2022-09-13T16:56:40;21.70;99.90
8858;DHT22;4465;50.904;4.696;2022-09-13T16:59:06;21.60;99.90
8858;DHT22;4465;50.904;4.696;2022-09-13T17:01:32;21.60;99.90
8858;DHT22;4465;50.904;4.696;2022-09-13T17:04:00;21.50;99.90
8858;DHT22;4465;50.904;4.696;2022-09-13T17:06:29;21.40;99.90
8858;DHT22;4465;50.904;4.696;2022-09-13T17:09:00;21.40;99.90
8858;DHT22;4465;50.904;4.696;2022-09-13T17:11:36;21.40;99.90
8858;DHT22;4465;50.904;4.696;2022-09-13T17:14:05;21.30;99.90
8858;DHT22;4465;50.904;4.696;2022-09-13T17:16:38;21.30;99.90
8858;DHT22;4465;50.904;4.696;2022-09-13T17:19:07;21.20;99.90
8858;DHT22;4465;50.904;4.696;2022-09-13T17:21:33;21.10;99.90
8858;DHT22;4465;50.904;4.696;2022-09-13T17:24:00;21.10;99.90
8858;DHT22;4465;50.904;4.696;2022-09-13T17:26:27;21.10;99.90
8858;DHT22;4465;50.904;4.696;2022-09-13T17:28:53;21.00;99.90
8858;DHT22;4465;50.904;4.696;2022-09-13T17:31:20;20.90;99.90
8858;DHT22;4465;50.904;4.696;2022-09-13T17:33:46;20.90;99.90
8858;DHT22;4465;50.904;4.696;2022-09-13T17:36:13;20.80;99.90
8858;DHT22;4465;50.904;4.696;2022-09-13T17:38:40;20.80;99.90
8858;DHT22;4465;50.904;4.696;2022-09-13T17:41:07;20.70;99.90
8858;DHT22;4465;50.904;4.696;2022-09-13T17:43:35;20.70;99.90
8858;DHT22;4465;50.904;4.696;2022-09-13T17:46:06;20.60;99.90
8858;DHT22;4465;50.904;4.696;2022-09-13T17:48:32;20.60;99.90
8858;DHT22;4465;50.904;4.696;2022-09-13T17:51:23;20.50;99.90
8858;DHT22;4465;50.904;4.696;2022-09-13T17:53:53;20.50;99.90
8858;DHT22;4465;50.904;4.696;2022-09-13T17:56:22;20.50;99.90
8858;DHT22;4465;50.904;4.696;2022-09-13T17:58:50;20.40;99.90
8858;DHT22;4465;50.904;4.696;2022-09-13T18:01:21;20.40;99.90
8858;DHT22;4465;50.904;4.696;2022-09-13T18:03:47;20.40;99.90
8858;DHT22;4465;50.904;4.696;2022-09-13T18:06:14;20.40;99.90
8858;DHT22;4465;50.904;4.696;2022-09-13T18:08:40;20.30;99.90
8858;DHT22;4465;50.904;4.696;2022-09-13T18:11:11;20.30;99.90
8858;DHT22;4465;50.904;4.696;2022-09-13T18:13:39;20.30;99.90
8858;DHT22;4465;50.904;4.696;2022-09-13T18:16:11;20.30;99.90
8858;DHT22;4465;50.904;4.696;2022-09-13T18:18:38;20.20;99.90
8858;DHT22;4465;50.904;4.696;2022-09-13T18:21:05;20.20;99.90
8858;DHT22;4465;50.904;4.696;2022-09-13T18:23:33;20.20;99.90
8858;DHT22;4465;50.904;4.696;2022-09-13T18:26:05;20.10;99.90
8858;DHT22;4465;50.904;4.696;2022-09-13T18:28:34;20.10;99.90
8858;DHT22;4465;50.904;4.696;2022-09-13T18:31:02;20.10;99.90
8858;DHT22;4465;50.904;4.696;2022-09-13T18:33:32;20.10;99.90
8858;DHT22;4465;50.904;4.696;2022-09-13T18:35:59;20.10;99.90
8858;DHT22;4465;50.904;4.696;2022-09-13T18:38:29;20.10;99.90
8858;DHT22;4465;50.904;4.696;2022-09-13T18:41:18;20.10;99.90
8858;DHT22;4465;50.904;4.696;2022-09-13T18:43:45;20.00;99.90
8858;DHT22;4465;50.904;4.696;2022-09-13T18:46:17;20.00;99.90
8858;DHT22;4465;50.904;4.696;2022-09-13T18:48:45;20.00;99.90
8858;DHT22;4465;50.904;4.696;2022-09-13T18:51:18;20.00;99.90
8858;DHT22;4465;50.904;4.696;2022-09-13T18:53:44;19.90;99.90
8858;DHT22;4465;50.904;4.696;2022-09-13T18:56:14;19.90;99.90
8858;DHT22;4465;50.904;4.696;2022-09-13T18:58:41;19.90;99.90
8858;DHT22;4465;50.904;4.696;2022-09-13T19:01:12;19.90;99.90
8858;DHT22;4465;50.904;4.696;2022-09-13T19:03:46;19.80;99.90
8858;DHT22;4465;50.904;4.696;2022-09-13T19:06:37;19.80;99.90
8858;DHT22;4465;50.904;4.696;2022-09-13T19:09:05;19.80;99.90
8858;DHT22;4465;50.904;4.696;2022-09-13T19:11:35;19.80;99.90
8858;DHT22;4465;50.904;4.696;2022-09-13T19:14:02;19.70;99.90
8858;DHT22;4465;50.904;4.696;2022-09-13T19:16:28;19.70;99.90
8858;DHT22;4465;50.904;4.696;2022-09-13T19:18:54;19.70;99.90
8858;DHT22;4465;50.904;4.696;2022-09-13T19:21:24;19.70;99.90
8858;DHT22;4465;50.904;4.696;2022-09-13T19:23:54;19.70;99.90
8858;DHT22;4465;50.904;4.696;2022-09-13T19:26:35;19.70;99.90
8858;DHT22;4465;50.904;4.696;2022-09-13T19:29:03;19.70;99.90
8858;DHT22;4465;50.904;4.696;2022-09-13T19:31:36;19.70;99.90
8858;DHT22;4465;50.904;4.696;2022-09-13T19:34:03;19.60;99.90